createdAt,value
2018-08-06T00:00:41.656Z,0.90
2018-08-06T00:03:12.165Z,0.90
2018-08-06T00:05:42.505Z,0.83
2018-08-06T00:08:12.971Z,1.03
2018-08-06T00:10:43.135Z,1.23
2018-08-06T00:13:13.403Z,0.80
2018-08-06T00:15:43.577Z,1.17
2018-08-06T00:18:13.845Z,1.10
2018-08-06T00:20:44.044Z,0.93
2018-08-06T00:23:14.288Z,1.10
2018-08-06T00:25:44.409Z,0.97
2018-08-06T00:28:14.552Z,1.33
2018-08-06T00:30:44.643Z,0.90
2018-08-06T00:33:14.772Z,0.70
2018-08-06T00:35:44.955Z,0.90
2018-08-06T00:38:15.185Z,1.03
2018-08-06T00:40:45.333Z,0.90
2018-08-06T00:43:15.553Z,1.10
2018-08-06T00:45:45.645Z,1.23
2018-08-06T00:48:15.866Z,1.50
2018-08-06T00:50:45.973Z,0.90
2018-08-06T00:53:16.131Z,0.90
2018-08-06T00:55:46.216Z,1.20
2018-08-06T00:58:16.481Z,0.80
2018-08-06T01:00:46.595Z,0.77
2018-08-06T01:03:16.737Z,0.87
2018-08-06T01:05:46.897Z,1.10
2018-08-06T01:08:17.113Z,0.90
2018-08-06T01:10:47.232Z,0.93
2018-08-06T01:13:17.449Z,1.23
2018-08-06T01:15:47.708Z,0.87
2018-08-06T01:18:17.880Z,1.23
2018-08-06T01:20:48.053Z,1.07
2018-08-06T01:23:18.174Z,1.00
2018-08-06T01:25:48.433Z,1.03
2018-08-06T01:28:18.637Z,1.20
2018-08-06T01:30:48.821Z,1.07
2018-08-06T01:33:19.146Z,1.43
2018-08-06T01:35:49.381Z,1.20
2018-08-06T01:38:19.602Z,1.20
2018-08-06T01:40:49.696Z,0.90
2018-08-06T01:43:19.869Z,0.73
2018-08-06T01:45:50.045Z,1.00
2018-08-06T01:48:20.206Z,1.40
2018-08-06T01:50:50.330Z,1.13
2018-08-06T01:53:20.539Z,1.13
2018-08-06T01:55:50.939Z,1.13
2018-08-06T01:58:21.191Z,1.33
2018-08-06T02:00:51.423Z,1.23
2018-08-06T02:03:21.639Z,1.50
2018-08-06T02:05:51.755Z,1.20
2018-08-06T02:08:21.960Z,1.23
2018-08-06T02:10:52.157Z,1.50
2018-08-06T02:13:22.319Z,1.43
2018-08-06T02:15:52.571Z,1.50
2018-08-06T02:18:22.785Z,1.57
2018-08-06T02:20:52.988Z,1.20
2018-08-06T02:23:23.194Z,1.53
2018-08-06T02:25:53.520Z,1.53
2018-08-06T02:28:23.682Z,1.43
2018-08-06T02:30:53.898Z,1.30
2018-08-06T02:33:24.135Z,1.33
2018-08-06T02:35:54.328Z,2.00
2018-08-06T02:38:24.552Z,1.30
2018-08-06T02:40:54.782Z,1.40
2018-08-06T02:43:25.136Z,1.90
2018-08-06T02:45:55.404Z,1.30
2018-08-06T02:48:25.689Z,1.80
2018-08-06T02:50:55.867Z,1.60
2018-08-06T02:53:26.007Z,1.60
2018-08-06T02:55:56.228Z,1.40
2018-08-06T02:58:26.544Z,1.27
2018-08-06T03:00:56.631Z,1.67
2018-08-06T03:03:26.824Z,2.00
2018-08-06T03:05:57.016Z,1.80
2018-08-06T03:08:27.247Z,1.30
2018-08-06T03:10:57.350Z,1.60
2018-08-06T03:13:27.518Z,1.50
2018-08-06T03:15:57.927Z,1.77
2018-08-06T03:18:28.139Z,1.40
2018-08-06T03:20:58.330Z,1.73
2018-08-06T03:23:28.495Z,1.50
2018-08-06T03:25:58.846Z,1.70
2018-08-06T03:28:29.032Z,1.40
2018-08-06T03:30:59.195Z,2.20
2018-08-06T03:33:29.416Z,2.00
2018-08-06T03:35:59.584Z,1.80
2018-08-06T03:38:29.824Z,1.70
2018-08-06T03:41:00.011Z,1.70
2018-08-06T03:43:30.233Z,2.00
2018-08-06T03:46:00.462Z,1.90
2018-08-06T03:48:30.715Z,1.73
2018-08-06T03:51:00.854Z,2.17
2018-08-06T03:53:31.413Z,1.93
2018-08-06T03:56:01.570Z,2.03
2018-08-06T03:58:31.892Z,2.43
2018-08-06T04:01:01.960Z,2.20
2018-08-06T04:03:32.123Z,2.00
2018-08-06T04:06:02.239Z,2.77
2018-08-06T04:08:32.427Z,2.73
2018-08-06T04:11:02.623Z,2.43
2018-08-06T04:13:32.825Z,1.90
2018-08-06T04:16:03.084Z,2.17
2018-08-06T04:18:33.479Z,2.70
2018-08-06T04:21:03.681Z,2.23
2018-08-06T04:23:33.889Z,3.27
2018-08-06T04:26:04.045Z,3.60
2018-08-06T04:28:34.188Z,7.57
2018-08-06T04:31:04.351Z,4.57
2018-08-06T04:33:34.602Z,5.33
2018-08-06T04:36:04.743Z,5.07
2018-08-06T04:38:34.981Z,4.70
2018-08-06T04:41:05.072Z,3.73
2018-08-06T04:43:35.243Z,3.23
2018-08-06T04:46:05.676Z,2.80
2018-08-06T04:48:35.367Z,3.00
2018-08-06T04:51:05.510Z,3.00
2018-08-06T04:53:35.792Z,2.67
2018-08-06T04:56:06.037Z,2.87
2018-08-06T04:58:36.203Z,2.80
2018-08-06T05:01:06.441Z,3.27
2018-08-06T05:03:36.692Z,3.23
2018-08-06T05:06:06.964Z,3.40
2018-08-06T05:08:37.145Z,2.60
2018-08-06T05:11:07.471Z,3.73
2018-08-06T05:13:37.715Z,3.37
2018-08-06T05:16:08.036Z,2.90
2018-08-06T05:18:38.212Z,3.10
2018-08-06T05:21:08.412Z,2.80
2018-08-06T05:23:55.185Z,2.70
2018-08-06T05:26:26.439Z,3.10
2018-08-06T05:28:56.690Z,3.63
2018-08-06T05:31:28.117Z,2.20
2018-08-06T05:33:59.326Z,2.90
2018-08-06T05:36:29.591Z,2.30
2018-08-06T05:38:59.774Z,2.90
2018-08-06T05:41:29.945Z,2.73
2018-08-06T05:44:00.159Z,2.83
2018-08-06T05:46:30.300Z,3.00
2018-08-06T05:49:00.536Z,3.10
2018-08-06T05:51:30.761Z,2.40
2018-08-06T05:54:01.051Z,3.33
2018-08-06T05:56:31.255Z,2.13
2018-08-06T05:59:01.436Z,2.60
2018-08-06T06:01:31.689Z,2.17
2018-08-06T06:04:01.920Z,2.33
2018-08-06T06:06:32.054Z,2.40
2018-08-06T06:09:02.294Z,3.97
2018-08-06T06:11:32.422Z,2.90
2018-08-06T06:14:02.576Z,2.53
2018-08-06T06:16:32.781Z,2.53
2018-08-06T06:19:02.960Z,3.20
2018-08-06T06:21:33.253Z,2.40
2018-08-06T06:24:03.560Z,2.60
2018-08-06T06:26:33.731Z,2.33
2018-08-06T06:29:04.045Z,2.13
2018-08-06T06:31:34.226Z,1.57
2018-08-06T06:34:04.641Z,2.20
2018-08-06T06:36:34.773Z,1.97
2018-08-06T06:39:07.560Z,2.07
2018-08-06T06:41:38.492Z,1.97
2018-08-06T06:44:09.257Z,2.03
2018-08-06T06:46:40.184Z,2.50
2018-08-06T06:49:10.984Z,1.87
2018-08-06T06:51:41.425Z,2.10
2018-08-06T06:54:14.485Z,2.07
2018-08-06T06:56:45.188Z,2.00
2018-08-06T06:59:15.367Z,2.30
2018-08-06T07:01:45.495Z,2.10
2018-08-06T07:04:15.764Z,1.87
2018-08-06T07:06:45.914Z,2.00
2018-08-06T07:09:16.009Z,2.20
2018-08-06T07:11:46.129Z,1.90
2018-08-06T07:14:16.503Z,1.20
2018-08-06T07:16:46.668Z,1.60
2018-08-06T07:19:16.966Z,2.30
2018-08-06T07:21:47.201Z,1.30
2018-08-06T07:24:17.477Z,1.83
2018-08-06T07:26:47.671Z,1.60
2018-08-06T07:29:17.927Z,1.80
2018-08-06T07:31:48.244Z,1.60
2018-08-06T07:34:18.529Z,1.80
2018-08-06T07:36:48.336Z,1.80
2018-08-06T07:39:18.658Z,1.57
2018-08-06T07:41:48.961Z,1.43
2018-08-06T07:44:19.343Z,1.53
2018-08-06T07:46:49.551Z,1.80
2018-08-06T07:49:20.015Z,2.67
2018-08-06T07:51:50.242Z,1.93
2018-08-06T07:54:20.617Z,2.00
2018-08-06T07:56:50.846Z,2.00
2018-08-06T07:59:21.016Z,1.93
2018-08-06T08:01:51.212Z,2.33
2018-08-06T08:04:21.536Z,1.70
2018-08-06T08:06:51.712Z,1.60
2018-08-06T08:09:21.945Z,2.03
2018-08-06T08:11:52.453Z,1.60
2018-08-06T08:14:22.700Z,1.50
2018-08-06T08:16:52.873Z,1.60
2018-08-06T08:19:23.311Z,1.80
2018-08-06T08:21:53.520Z,1.60
2018-08-06T08:24:23.717Z,1.33
2018-08-06T08:26:53.883Z,1.60
2018-08-06T08:29:24.073Z,1.47
2018-08-06T08:31:54.233Z,1.83
2018-08-06T08:34:24.457Z,1.53
2018-08-06T08:36:54.655Z,1.10
2018-08-06T08:39:24.849Z,1.60
2018-08-06T08:41:55.107Z,2.83
2018-08-06T08:44:25.235Z,1.60
2018-08-06T08:46:55.364Z,1.33
2018-08-06T08:49:25.540Z,1.30
2018-08-06T08:51:55.733Z,1.53
2018-08-06T08:54:25.934Z,1.27
2018-08-06T08:56:56.110Z,1.40
2018-08-06T08:59:26.277Z,1.50
2018-08-06T09:01:56.432Z,1.07
2018-08-06T09:04:26.657Z,1.37
2018-08-06T09:06:56.821Z,1.30
2018-08-06T09:09:26.926Z,1.70
2018-08-06T09:11:57.157Z,1.40
2018-08-06T09:14:27.314Z,1.33
2018-08-06T09:16:57.477Z,1.53
2018-08-06T09:19:27.746Z,1.57
2018-08-06T09:21:57.847Z,1.23
2018-08-06T09:27:44.739Z,1.70
2018-08-06T09:30:18.260Z,1.50
2018-08-06T09:32:49.627Z,1.40
2018-08-06T09:35:20.396Z,1.20
2018-08-06T09:37:50.857Z,1.40
2018-08-06T09:40:22.157Z,1.50
2018-08-06T09:42:52.789Z,1.80
2018-08-06T09:45:23.530Z,1.23
2018-08-06T09:47:54.733Z,2.40
2018-08-06T09:50:24.946Z,1.47
2018-08-06T09:52:56.591Z,1.40
2018-08-06T09:55:28.548Z,2.00
2018-08-06T09:57:58.742Z,1.67
2018-08-06T10:00:33.982Z,1.60
2018-08-06T10:03:04.231Z,1.70
2018-08-06T10:05:34.480Z,1.40
2018-08-06T10:08:04.732Z,1.70
2018-08-06T10:10:34.943Z,1.70
2018-08-06T10:13:05.168Z,1.67
2018-08-06T10:15:35.387Z,1.60
2018-08-06T10:18:05.664Z,1.67
2018-08-06T10:20:35.879Z,1.40
2018-08-06T10:23:05.595Z,1.63
2018-08-06T10:25:35.842Z,1.80
2018-08-06T10:28:06.006Z,1.27
2018-08-06T10:30:36.207Z,1.80
2018-08-06T10:33:06.394Z,1.60
2018-08-06T10:35:36.551Z,1.77
2018-08-06T10:38:06.706Z,1.40
2018-08-06T10:40:36.899Z,1.33
2018-08-06T10:43:07.107Z,1.83
2018-08-06T10:45:37.217Z,1.90
2018-08-06T10:48:07.315Z,1.60
2018-08-06T10:50:37.485Z,1.87
2018-08-06T10:53:07.798Z,1.77
2018-08-06T10:55:37.992Z,2.20
2018-08-06T10:58:08.227Z,2.20
2018-08-06T11:00:38.394Z,1.40
2018-08-06T11:03:08.692Z,1.70
2018-08-06T11:05:38.956Z,1.40
2018-08-06T11:08:09.175Z,1.63
2018-08-06T11:10:39.434Z,1.73
2018-08-06T11:13:09.574Z,1.90
2018-08-06T11:15:39.711Z,1.70
2018-08-06T11:18:09.829Z,2.10
2018-08-06T11:20:39.914Z,2.10
2018-08-06T11:23:10.015Z,1.63
2018-08-06T11:25:40.253Z,1.73
2018-08-06T11:28:10.436Z,1.83
2018-08-06T11:30:40.541Z,1.47
2018-08-06T11:33:10.689Z,1.77
2018-08-06T11:35:40.977Z,1.80
2018-08-06T11:38:11.100Z,1.80
2018-08-06T11:40:41.255Z,1.63
2018-08-06T11:43:11.030Z,1.73
2018-08-06T11:45:41.173Z,2.50
2018-08-06T11:48:11.228Z,2.00
2018-08-06T11:50:41.373Z,1.87
2018-08-06T11:53:11.464Z,2.50
2018-08-06T11:55:41.762Z,2.00
2018-08-06T11:58:11.938Z,2.07
2018-08-06T12:00:45.153Z,2.07
2018-08-06T12:03:15.253Z,1.70
2018-08-06T12:05:45.364Z,1.53
2018-08-06T12:08:15.491Z,1.70
2018-08-06T12:10:45.668Z,1.87
2018-08-06T12:13:15.718Z,1.77
2018-08-06T12:15:45.945Z,8.83
2018-08-06T12:18:15.949Z,5.47
2018-08-06T12:20:46.071Z,1.70
2018-08-06T12:23:16.155Z,1.87
2018-08-06T12:25:46.331Z,1.73
2018-08-06T12:28:16.393Z,2.00
2018-08-06T12:30:46.592Z,1.97
2018-08-06T12:33:16.636Z,2.00
2018-08-06T12:35:46.870Z,1.77
2018-08-06T12:38:16.971Z,1.60
2018-08-06T12:40:47.095Z,1.63
2018-08-06T12:43:17.271Z,1.80
2018-08-06T12:45:47.405Z,1.80
2018-08-06T12:48:17.562Z,1.80
2018-08-06T12:50:47.707Z,2.30
2018-08-06T12:53:17.756Z,2.40
2018-08-06T12:55:47.991Z,1.63
2018-08-06T12:58:18.067Z,1.90
2018-08-06T13:00:48.195Z,1.60
2018-08-06T13:03:18.265Z,1.60
2018-08-06T13:05:48.404Z,2.00
2018-08-06T13:08:18.554Z,1.47
2018-08-06T13:10:48.734Z,1.97
2018-08-06T13:13:18.850Z,1.63
2018-08-06T13:15:48.997Z,1.80
2018-08-06T13:18:19.166Z,2.00
2018-08-06T13:20:49.309Z,1.60
2018-08-06T13:23:18.983Z,1.80
2018-08-06T13:25:49.068Z,1.73
2018-08-06T13:28:19.240Z,2.30
2018-08-06T13:30:49.382Z,1.60
2018-08-06T13:33:19.473Z,2.70
2018-08-06T13:35:49.573Z,1.60
2018-08-06T13:38:19.674Z,1.63
2018-08-06T13:40:49.834Z,1.80
2018-08-06T13:43:20.061Z,2.03
2018-08-06T13:45:50.218Z,1.70
2018-08-06T13:48:20.334Z,1.87
2018-08-06T13:50:50.430Z,1.83
2018-08-06T13:53:20.599Z,1.77
2018-08-06T13:55:50.723Z,1.90
2018-08-06T13:58:20.793Z,1.73
2018-08-06T14:00:50.993Z,1.83
2018-08-06T14:03:21.163Z,1.70
2018-08-06T14:05:51.333Z,2.40
2018-08-06T14:08:21.448Z,2.27
2018-08-06T14:10:51.590Z,1.40
2018-08-06T14:13:21.636Z,2.17
2018-08-06T14:15:51.843Z,2.00
2018-08-06T14:18:21.990Z,1.60
2018-08-06T14:20:52.121Z,1.90
2018-08-06T14:23:22.254Z,1.60
2018-08-06T14:25:52.397Z,1.83
2018-08-06T14:28:22.542Z,1.93
2018-08-06T14:30:52.703Z,1.80
2018-08-06T14:33:22.850Z,2.10
2018-08-06T14:35:52.924Z,1.97
2018-08-06T14:38:23.016Z,1.90
2018-08-06T14:40:53.183Z,2.20
2018-08-06T14:43:23.244Z,1.87
2018-08-06T14:45:53.350Z,1.70
2018-08-06T14:48:23.433Z,1.73
2018-08-06T14:50:53.621Z,2.70
2018-08-06T14:53:23.732Z,1.77
2018-08-06T14:55:53.899Z,1.77
2018-08-06T14:58:24.795Z,1.90
2018-08-06T15:00:55.078Z,1.77
2018-08-06T15:03:25.245Z,1.47
2018-08-06T15:05:55.419Z,1.77
2018-08-06T15:08:25.770Z,1.60
2018-08-06T15:10:56.096Z,1.90
2018-08-06T15:13:26.235Z,2.00
2018-08-06T15:15:56.418Z,1.87
2018-08-06T15:18:26.504Z,1.93
2018-08-06T15:20:56.639Z,2.37
2018-08-06T15:23:26.757Z,1.60
2018-08-06T15:25:57.007Z,1.93
2018-08-06T15:28:27.167Z,1.80
2018-08-06T15:30:57.368Z,1.87
2018-08-06T15:33:27.481Z,1.40
2018-08-06T15:35:57.669Z,1.53
2018-08-06T15:38:27.798Z,1.70
2018-08-06T15:40:57.993Z,1.60
2018-08-06T15:43:28.136Z,2.00
2018-08-06T15:45:58.268Z,1.50
2018-08-06T15:48:28.486Z,1.77
2018-08-06T15:50:58.680Z,2.13
2018-08-06T15:53:28.920Z,1.77
2018-08-06T15:55:59.148Z,2.17
2018-08-06T15:58:29.377Z,2.37
2018-08-06T16:00:59.539Z,1.67
2018-08-06T16:03:30.683Z,1.87
2018-08-06T16:06:01.094Z,2.17
2018-08-06T16:08:32.268Z,1.80
2018-08-06T16:11:02.511Z,1.70
2018-08-06T16:13:41.098Z,1.50
2018-08-06T16:16:11.340Z,2.10
2018-08-06T16:18:41.434Z,1.70
2018-08-06T16:21:11.698Z,1.70
2018-08-06T16:23:41.800Z,1.90
2018-08-06T16:26:11.916Z,1.70
2018-08-06T16:28:42.147Z,1.70
2018-08-06T16:31:12.360Z,1.97
2018-08-06T16:33:42.546Z,2.23
2018-08-06T16:36:12.703Z,2.07
2018-08-06T16:38:42.829Z,1.93
2018-08-06T16:41:13.041Z,2.17
2018-08-06T16:43:43.204Z,1.67
2018-08-06T16:46:13.426Z,2.07
2018-08-06T16:48:43.678Z,1.83
2018-08-06T16:51:13.780Z,1.97
2018-08-06T16:53:43.931Z,2.00
2018-08-06T16:56:14.115Z,1.80
2018-08-06T16:58:44.235Z,2.20
2018-08-06T17:01:14.376Z,1.90
2018-08-06T17:03:44.560Z,2.67
2018-08-06T17:06:14.740Z,2.40
2018-08-06T17:08:44.796Z,2.30
2018-08-06T17:11:15.024Z,2.30
2018-08-06T17:13:45.171Z,2.37
2018-08-06T17:16:15.357Z,1.93
2018-08-06T17:18:45.543Z,2.47
2018-08-06T17:21:15.742Z,2.13
2018-08-06T17:23:45.825Z,1.80
2018-08-06T17:26:15.980Z,1.60
2018-08-06T17:28:46.102Z,2.30
2018-08-06T17:31:16.423Z,2.00
2018-08-06T17:33:46.564Z,2.00
2018-08-06T17:36:16.795Z,2.30
2018-08-06T17:38:46.929Z,2.27
2018-08-06T17:41:17.077Z,2.03
2018-08-06T17:43:47.194Z,2.50
2018-08-06T17:46:17.379Z,2.70
2018-08-06T17:48:47.839Z,1.90
2018-08-06T17:51:17.926Z,2.13
2018-08-06T17:53:48.008Z,2.23
2018-08-06T17:56:18.148Z,2.17
2018-08-06T17:58:48.296Z,2.30
2018-08-06T18:01:18.473Z,2.67
2018-08-06T18:03:48.561Z,2.30
2018-08-06T18:06:18.724Z,1.87
2018-08-06T18:08:49.016Z,2.27
2018-08-06T18:11:19.086Z,2.83
2018-08-06T18:13:49.164Z,1.47
2018-08-06T18:16:19.393Z,2.37
2018-08-06T18:18:49.544Z,3.40
2018-08-06T18:21:19.707Z,2.10
2018-08-06T18:23:49.747Z,2.10
2018-08-06T18:26:19.977Z,2.17
2018-08-06T18:28:50.120Z,1.97
2018-08-06T18:31:20.327Z,2.53
2018-08-06T18:33:50.555Z,2.60
2018-08-06T18:36:20.735Z,3.00
2018-08-06T18:38:51.890Z,2.77
2018-08-06T18:41:22.085Z,2.73
2018-08-06T18:43:52.217Z,2.73
2018-08-06T18:46:22.436Z,3.30
2018-08-06T18:48:52.566Z,3.10
2018-08-06T18:51:22.760Z,3.90
2018-08-06T18:53:52.874Z,2.30
2018-08-06T18:56:23.039Z,2.97
2018-08-06T18:58:53.204Z,2.80
2018-08-06T19:01:23.372Z,3.77
2018-08-06T19:03:53.756Z,2.93
2018-08-06T19:06:23.917Z,2.80
2018-08-06T19:08:53.969Z,3.20
2018-08-06T19:11:24.137Z,2.60
2018-08-06T19:13:59.238Z,4.10
2018-08-06T19:16:29.468Z,2.23
2018-08-06T19:19:04.554Z,3.03
2018-08-06T19:21:34.678Z,2.97
2018-08-06T19:24:09.804Z,3.40
2018-08-06T19:26:39.951Z,3.27
2018-08-06T19:29:09.990Z,3.53
2018-08-06T19:31:40.131Z,3.13
2018-08-06T19:34:10.267Z,3.50
2018-08-06T19:36:45.415Z,3.50
2018-08-06T19:39:15.620Z,3.23
2018-08-06T19:41:45.741Z,3.10
2018-08-06T19:44:15.916Z,3.43
2018-08-06T19:46:46.141Z,3.70
2018-08-06T19:50:23.323Z,4.40
2018-08-06T19:52:53.513Z,3.40
2018-08-06T19:55:28.923Z,3.50
2018-08-06T19:57:59.103Z,4.50
2018-08-06T20:00:29.468Z,4.17
2018-08-06T20:02:59.697Z,4.07
2018-08-06T20:05:29.869Z,3.67
2018-08-06T20:08:00.075Z,3.87
2018-08-06T20:10:30.742Z,2.83
2018-08-06T20:13:00.897Z,3.30
2018-08-06T20:15:31.037Z,3.30
2018-08-06T20:18:01.246Z,4.40
2018-08-06T20:20:31.411Z,4.87
2018-08-06T20:23:01.704Z,4.03
2018-08-06T20:25:31.834Z,3.77
2018-08-06T20:28:02.046Z,3.40
2018-08-06T20:30:32.247Z,3.30
2018-08-06T20:33:02.478Z,2.87
2018-08-06T20:35:32.626Z,2.97
2018-08-06T20:38:02.865Z,2.60
2018-08-06T20:40:33.016Z,2.27
2018-08-06T20:43:03.154Z,2.60
2018-08-06T20:45:33.350Z,2.80
2018-08-06T20:48:03.688Z,2.90
2018-08-06T20:50:33.821Z,2.40
2018-08-06T20:53:03.995Z,2.73
2018-08-06T20:55:34.119Z,2.90
2018-08-06T20:58:04.341Z,3.07
2018-08-06T21:00:34.515Z,2.67
2018-08-06T21:03:04.800Z,2.90
2018-08-06T21:05:34.998Z,2.40
2018-08-06T21:08:05.207Z,2.30
2018-08-06T21:10:35.474Z,2.47
2018-08-06T21:13:05.660Z,2.27
2018-08-06T21:15:35.849Z,3.90
2018-08-06T21:18:06.182Z,3.27
2018-08-06T21:20:36.279Z,2.70
2018-08-06T21:23:06.466Z,2.70
2018-08-06T21:25:36.591Z,2.70
2018-08-06T21:28:06.823Z,2.23
2018-08-06T21:30:36.899Z,2.70
2018-08-06T21:33:07.041Z,2.80
2018-08-06T21:35:37.254Z,2.63
2018-08-06T21:38:07.628Z,2.50
2018-08-06T21:40:37.837Z,2.33
2018-08-06T21:43:08.479Z,2.77
2018-08-06T21:45:38.692Z,2.43
2018-08-06T21:48:08.958Z,2.57
2018-08-06T21:50:39.136Z,2.50
2018-08-06T21:53:09.562Z,2.80
2018-08-06T21:55:39.895Z,2.03
2018-08-06T21:58:10.116Z,2.30
2018-08-06T22:00:41.334Z,2.80
2018-08-06T22:03:18.833Z,2.80
2018-08-06T22:05:48.993Z,2.30
2018-08-06T22:08:19.113Z,2.50
2018-08-06T22:10:49.231Z,2.47
2018-08-06T22:13:19.438Z,2.30
2018-08-06T22:15:49.653Z,2.53
2018-08-06T22:18:19.883Z,2.40
2018-08-06T22:20:50.076Z,2.30
2018-08-06T22:23:20.281Z,2.73
2018-08-06T22:25:50.452Z,2.40
2018-08-06T22:28:20.620Z,2.50
2018-08-06T22:30:50.741Z,2.60
2018-08-06T22:33:20.903Z,3.10
2018-08-06T22:35:51.201Z,2.97
2018-08-06T22:38:22.189Z,2.53
2018-08-06T22:40:52.380Z,2.80
2018-08-06T22:43:22.667Z,2.13
2018-08-06T22:45:52.803Z,2.20
2018-08-06T22:48:23.055Z,2.43
2018-08-06T22:50:53.235Z,3.30
2018-08-06T22:53:23.373Z,3.10
2018-08-06T22:56:04.465Z,3.27
2018-08-06T22:58:34.570Z,3.33
2018-08-06T23:01:04.852Z,3.13
2018-08-06T23:03:35.103Z,2.83
2018-08-06T23:06:05.425Z,2.53
2018-08-06T23:08:35.647Z,2.57
2018-08-06T23:11:05.824Z,2.50
2018-08-06T23:13:36.107Z,2.83
2018-08-06T23:16:06.438Z,2.50
2018-08-06T23:18:36.602Z,2.63
2018-08-06T23:21:06.861Z,2.67
2018-08-06T23:23:37.069Z,2.80
2018-08-06T23:26:07.287Z,3.13
2018-08-06T23:28:37.434Z,3.00
2018-08-06T23:31:07.766Z,2.83
2018-08-06T23:33:37.858Z,3.00
2018-08-06T23:36:08.021Z,2.80
2018-08-06T23:38:38.219Z,2.50
2018-08-06T23:41:08.429Z,2.73
2018-08-06T23:43:38.662Z,3.10
2018-08-06T23:46:08.757Z,2.77
2018-08-06T23:48:38.963Z,2.63
2018-08-06T23:51:09.799Z,2.57
2018-08-06T23:53:39.979Z,2.97
2018-08-06T23:56:10.194Z,2.67
2018-08-06T23:58:40.281Z,2.90
